Haviland, Ohio
Current Conditions -  °F | °C
As of 6:53 PM on Monday 22 Dec 2014 (Local Time) from KDFI Reporting Station
Haze Haze  
Wind Chill: 30°   Ceiling: 9000
Heat Index: 37°   Visibility: 6mi
Dew Point: 31°   Wind: 10mph
Humidity: 79%   Direction: 80°E
Pressure: 29.85"   Gusts: NA
Location:  41.02°N, 84.58°W
Report Text: KDFI 222353Z AUTO 08009KT 6SM HZ FEW070 OVC090 03/M01 A2985 RMK AO2 SLP117 T00281006 10033 20022 58011 TSNO
Loading
Personal Weather Stations






























Interactive Weather Map New forecast layout! Learn more

10-Day Weather Forecast

Advertisements
Track Severe Weather on mobile